createdAt,value
2022-07-31T00:00:20.282Z,69.37
2022-07-31T00:02:46.864Z,69.77
2022-07-31T00:05:13.598Z,69.62
2022-07-31T00:07:40.525Z,69.72
2022-07-31T00:10:07.486Z,70.05
2022-07-31T00:12:34.876Z,69.82
2022-07-31T00:15:03.345Z,70.37
2022-07-31T00:17:29.789Z,71.04
2022-07-31T00:19:56.272Z,70.81
2022-07-31T00:22:22.832Z,71.20
2022-07-31T00:24:49.230Z,71.18
2022-07-31T00:27:15.711Z,71.34
2022-07-31T00:29:42.129Z,71.96
2022-07-31T00:32:08.572Z,72.08
2022-07-31T00:34:34.939Z,71.91
2022-07-31T00:37:01.558Z,71.87
2022-07-31T00:39:28.118Z,71.39
2022-07-31T00:41:55.132Z,71.53
2022-07-31T00:44:21.567Z,72.42
2022-07-31T00:46:48.068Z,72.16
2022-07-31T00:49:15.760Z,72.98
2022-07-31T00:51:42.396Z,72.47
2022-07-31T00:54:10.330Z,72.04
2022-07-31T00:56:43.332Z,72.57
2022-07-31T00:59:09.775Z,72.73
2022-07-31T01:01:36.244Z,73.21
2022-07-31T01:04:02.684Z,72.79
2022-07-31T01:06:29.102Z,73.14
2022-07-31T01:08:55.468Z,72.94
2022-07-31T01:11:29.863Z,73.33
2022-07-31T01:14:01.927Z,72.97
2022-07-31T01:16:33.461Z,72.92
2022-07-31T01:19:04.949Z,72.93
2022-07-31T01:21:43.404Z,73.17
2022-07-31T01:24:29.160Z,73.19
2022-07-31T01:27:16.799Z,73.22
2022-07-31T01:29:50.231Z,73.45
2022-07-31T01:32:27.762Z,73.56
2022-07-31T01:35:07.884Z,73.85
2022-07-31T01:37:40.735Z,73.38
2022-07-31T01:40:14.431Z,73.78
2022-07-31T01:42:50.869Z,73.75
2022-07-31T01:45:20.788Z,73.82
2022-07-31T01:47:49.023Z,74.13
2022-07-31T01:50:43.333Z,73.79
2022-07-31T01:53:03.055Z,73.55
2022-07-31T01:55:32.048Z,73.78
2022-07-31T01:58:21.055Z,73.86
2022-07-31T02:00:49.361Z,73.62
2022-07-31T02:03:17.088Z,74.13
2022-07-31T02:05:44.754Z,74.56
2022-07-31T02:08:13.798Z,74.51
2022-07-31T02:10:40.724Z,74.22
2022-07-31T02:13:07.476Z,74.37
2022-07-31T02:15:35.207Z,74.62
2022-07-31T02:18:02.780Z,74.72
2022-07-31T02:20:31.077Z,74.61
2022-07-31T02:22:59.196Z,74.99
2022-07-31T02:25:26.664Z,75.16
2022-07-31T02:27:58.174Z,75.58
2022-07-31T02:30:27.758Z,75.78
2022-07-31T02:33:10.275Z,76.17
2022-07-31T02:35:38.921Z,75.93
2022-07-31T02:38:22.425Z,76.08
2022-07-31T02:40:53.144Z,76.43
2022-07-31T02:43:20.770Z,76.08
2022-07-31T02:45:47.826Z,76.47
2022-07-31T02:48:14.484Z,77.00
2022-07-31T02:50:41.349Z,76.70
2022-07-31T02:53:07.899Z,76.33
2022-07-31T02:55:34.674Z,77.12
2022-07-31T02:58:02.513Z,76.49
2022-07-31T03:00:29.197Z,76.78
2022-07-31T03:02:55.831Z,76.63
2022-07-31T03:05:22.720Z,76.71
2022-07-31T03:07:49.362Z,76.87
2022-07-31T03:10:16.212Z,76.74
2022-07-31T03:12:46.269Z,76.72
2022-07-31T03:15:14.874Z,76.29
2022-07-31T03:17:43.421Z,76.23
2022-07-31T03:20:11.145Z,76.31
2022-07-31T03:22:39.687Z,76.67
2022-07-31T03:25:07.231Z,77.06
2022-07-31T03:27:33.912Z,76.63
2022-07-31T03:30:00.361Z,76.55
2022-07-31T03:32:26.760Z,76.14
2022-07-31T03:34:53.310Z,76.52
2022-07-31T03:37:19.688Z,76.49
2022-07-31T03:39:46.060Z,76.79
2022-07-31T03:42:19.286Z,76.45
2022-07-31T03:44:47.893Z,77.13
2022-07-31T03:47:16.734Z,77.13
2022-07-31T03:49:43.879Z,77.02
2022-07-31T03:52:12.395Z,76.93
2022-07-31T03:54:40.147Z,76.56
2022-07-31T03:57:08.344Z,76.89
2022-07-31T03:59:40.698Z,77.10
2022-07-31T04:02:14.944Z,77.27
2022-07-31T04:04:45.104Z,76.93
2022-07-31T04:07:11.518Z,76.95
2022-07-31T04:09:38.628Z,77.19
2022-07-31T04:12:06.049Z,76.96
2022-07-31T04:14:32.911Z,77.53
2022-07-31T04:16:59.416Z,77.61
2022-07-31T04:19:25.846Z,77.23
2022-07-31T04:21:52.239Z,77.89
2022-07-31T04:24:19.184Z,77.89
2022-07-31T04:26:45.798Z,77.90
2022-07-31T04:29:12.197Z,78.06
2022-07-31T04:31:38.568Z,77.93
2022-07-31T04:34:05.004Z,78.27
2022-07-31T04:36:31.710Z,78.24
2022-07-31T04:39:01.621Z,78.51
2022-07-31T04:41:28.117Z,79.01
2022-07-31T04:43:54.542Z,79.24
2022-07-31T04:46:21.299Z,79.53
2022-07-31T04:48:49.303Z,79.34
2022-07-31T04:51:19.977Z,79.12
2022-07-31T04:53:47.077Z,79.91
2022-07-31T04:56:32.745Z,80.25
2022-07-31T04:59:07.214Z,79.74
2022-07-31T05:01:34.440Z,79.48
2022-07-31T05:04:01.703Z,79.94
2022-07-31T05:06:37.972Z,79.89
2022-07-31T05:09:09.459Z,79.25
2022-07-31T05:11:38.008Z,79.18
2022-07-31T05:14:06.092Z,79.92
2022-07-31T05:16:32.965Z,80.71
2022-07-31T05:18:59.701Z,79.82
2022-07-31T05:21:30.606Z,80.58
2022-07-31T05:23:58.540Z,80.29
2022-07-31T05:26:25.832Z,79.21
2022-07-31T05:28:58.251Z,79.81
2022-07-31T05:31:25.723Z,79.99
2022-07-31T05:33:52.112Z,79.83
2022-07-31T05:36:19.513Z,79.38
2022-07-31T05:38:46.549Z,79.25
2022-07-31T05:41:13.271Z,79.06
2022-07-31T05:43:40.300Z,79.60
2022-07-31T05:46:07.207Z,79.50
2022-07-31T05:48:34.203Z,79.42
2022-07-31T05:51:05.278Z,79.05
2022-07-31T05:53:32.064Z,79.07
2022-07-31T05:55:58.435Z,79.27
2022-07-31T05:58:24.837Z,79.12
2022-07-31T06:00:51.388Z,79.58
2022-07-31T06:03:23.714Z,79.50
2022-07-31T06:05:51.093Z,79.35
2022-07-31T06:08:17.576Z,78.81
2022-07-31T06:10:44.064Z,79.34
2022-07-31T06:13:11.149Z,79.43
2022-07-31T06:15:37.751Z,78.92
2022-07-31T06:18:09.843Z,79.91
2022-07-31T06:20:37.121Z,79.33
2022-07-31T06:23:14.586Z,79.69
2022-07-31T06:25:49.632Z,79.63
2022-07-31T06:28:16.511Z,79.57
2022-07-31T06:30:43.853Z,79.30
2022-07-31T06:33:20.148Z,79.15
2022-07-31T06:35:56.640Z,79.12
2022-07-31T06:38:24.349Z,79.66
2022-07-31T06:40:51.493Z,79.91
2022-07-31T06:43:17.924Z,79.87
2022-07-31T06:45:51.111Z,79.98
2022-07-31T06:48:18.733Z,79.99
2022-07-31T06:50:45.348Z,79.73
2022-07-31T06:53:11.760Z,79.83
2022-07-31T06:55:38.264Z,79.71
2022-07-31T06:58:11.433Z,80.12
2022-07-31T07:00:37.854Z,79.88
2022-07-31T07:03:04.259Z,80.17
2022-07-31T07:05:30.688Z,80.25
2022-07-31T07:07:57.174Z,80.26
2022-07-31T07:10:23.694Z,80.63
2022-07-31T07:12:50.192Z,80.21
2022-07-31T07:15:17.715Z,79.90
2022-07-31T07:17:44.104Z,80.25
2022-07-31T07:20:10.731Z,80.03
2022-07-31T07:22:37.361Z,80.40
2022-07-31T07:25:03.971Z,80.14
2022-07-31T07:27:30.425Z,80.50
2022-07-31T07:29:57.267Z,80.52
2022-07-31T07:32:23.676Z,80.45
2022-07-31T07:34:59.543Z,80.04
2022-07-31T07:37:27.297Z,80.90
2022-07-31T07:39:53.708Z,81.38
2022-07-31T07:42:20.144Z,80.90
2022-07-31T07:44:46.536Z,81.08
2022-07-31T07:47:12.941Z,81.38
2022-07-31T07:49:39.318Z,81.57
2022-07-31T07:52:05.860Z,81.72
2022-07-31T07:54:32.656Z,81.70
2022-07-31T07:56:59.391Z,81.36
2022-07-31T07:59:25.873Z,81.31
2022-07-31T08:01:52.248Z,80.64
2022-07-31T08:04:18.819Z,80.58
2022-07-31T08:06:45.188Z,81.03
2022-07-31T08:09:11.607Z,80.02
2022-07-31T08:11:37.992Z,80.54
2022-07-31T08:14:04.368Z,80.77
2022-07-31T08:16:32.486Z,80.53
2022-07-31T08:18:58.904Z,80.85
2022-07-31T08:21:25.303Z,80.58
2022-07-31T08:23:52.724Z,80.87
2022-07-31T08:26:19.116Z,80.73
2022-07-31T08:28:50.209Z,80.76
2022-07-31T08:31:20.595Z,80.90
2022-07-31T08:33:47.553Z,81.51
2022-07-31T08:36:13.986Z,82.05
2022-07-31T08:38:40.389Z,82.21
2022-07-31T08:41:06.816Z,82.92
2022-07-31T08:44:01.685Z,83.34
2022-07-31T08:46:21.647Z,83.81
2022-07-31T08:48:53.374Z,84.24
2022-07-31T08:51:20.724Z,84.45
2022-07-31T08:53:50.388Z,85.56
2022-07-31T08:56:17.344Z,85.83
2022-07-31T08:58:51.629Z,85.08
2022-07-31T09:01:18.144Z,85.21
2022-07-31T09:03:47.883Z,85.92
2022-07-31T09:06:17.348Z,86.48
2022-07-31T09:08:43.778Z,86.25
2022-07-31T09:11:12.077Z,86.58
2022-07-31T09:14:02.213Z,86.61
2022-07-31T09:16:30.787Z,85.94
2022-07-31T09:19:52.720Z,85.71
2022-07-31T09:21:52.526Z,85.84
2022-07-31T09:24:32.172Z,86.09
2022-07-31T09:27:09.393Z,86.14
2022-07-31T09:29:41.268Z,86.29
2022-07-31T09:32:16.658Z,86.01
2022-07-31T09:34:44.353Z,85.84
2022-07-31T09:37:19.012Z,85.46
2022-07-31T09:39:52.238Z,85.56
2022-07-31T09:42:20.218Z,85.38
2022-07-31T09:44:58.275Z,85.53
2022-07-31T09:47:29.117Z,85.65
2022-07-31T09:50:01.501Z,85.90
2022-07-31T09:52:29.875Z,87.11
2022-07-31T09:55:15.885Z,86.60
2022-07-31T09:57:57.499Z,86.28
2022-07-31T10:00:24.788Z,86.31
2022-07-31T10:02:53.913Z,86.26
2022-07-31T10:05:25.705Z,86.69
2022-07-31T10:07:56.097Z,87.42
2022-07-31T10:10:23.400Z,86.90
2022-07-31T10:12:52.765Z,85.82
2022-07-31T10:15:20.462Z,86.00
2022-07-31T10:17:50.053Z,86.38
2022-07-31T10:20:23.633Z,86.26
2022-07-31T10:22:57.280Z,85.93
2022-07-31T10:25:28.904Z,85.49
2022-07-31T10:27:57.295Z,84.25
2022-07-31T10:30:28.122Z,84.34
2022-07-31T10:32:55.352Z,84.54
2022-07-31T10:35:22.711Z,84.46
2022-07-31T10:37:55.121Z,84.88
2022-07-31T10:40:40.278Z,83.79
2022-07-31T10:43:27.188Z,84.67
2022-07-31T10:45:55.040Z,84.80
2022-07-31T10:48:22.673Z,84.41
2022-07-31T10:51:01.321Z,84.84
2022-07-31T10:53:50.335Z,85.08
2022-07-31T10:56:14.639Z,85.46
2022-07-31T10:58:56.246Z,85.67
2022-07-31T11:01:23.688Z,85.11
2022-07-31T11:03:58.879Z,85.74
2022-07-31T11:06:26.953Z,86.00
2022-07-31T11:08:54.744Z,85.90
2022-07-31T11:11:35.331Z,85.70
2022-07-31T11:14:01.809Z,85.99
2022-07-31T11:16:29.108Z,85.21
2022-07-31T11:19:01.093Z,85.37
2022-07-31T11:21:39.035Z,85.98
2022-07-31T11:24:13.745Z,85.28
2022-07-31T11:26:51.501Z,85.19
2022-07-31T11:29:59.847Z,85.31
2022-07-31T11:32:15.616Z,85.50
2022-07-31T11:34:50.337Z,85.09
2022-07-31T11:37:20.416Z,85.42
2022-07-31T11:39:51.743Z,85.52
2022-07-31T11:42:20.689Z,85.44
2022-07-31T11:44:52.831Z,85.64
2022-07-31T11:48:09.289Z,85.65
2022-07-31T11:50:06.084Z,85.43
2022-07-31T11:52:36.987Z,85.13
2022-07-31T11:55:11.233Z,85.60
2022-07-31T11:57:51.325Z,85.63
2022-07-31T12:00:29.472Z,85.33
2022-07-31T12:02:57.800Z,85.44
2022-07-31T12:05:38.691Z,85.54
2022-07-31T12:08:07.603Z,85.22
2022-07-31T12:10:34.443Z,84.95
2022-07-31T12:13:02.040Z,85.28
2022-07-31T12:15:28.472Z,85.38
2022-07-31T12:18:03.197Z,84.97
2022-07-31T12:20:35.816Z,85.79
2022-07-31T12:23:05.026Z,85.81
2022-07-31T12:25:45.996Z,85.20
2022-07-31T12:28:15.763Z,84.86
2022-07-31T12:30:43.181Z,84.91
2022-07-31T12:33:10.811Z,84.69
2022-07-31T12:35:55.655Z,84.16
2022-07-31T12:38:44.867Z,83.46
2022-07-31T12:41:13.520Z,84.38
2022-07-31T12:43:51.682Z,85.05
2022-07-31T12:46:35.997Z,85.83
2022-07-31T12:49:03.890Z,85.22
2022-07-31T12:51:45.637Z,84.82
2022-07-31T12:54:14.734Z,84.13
2022-07-31T12:56:41.828Z,83.41
2022-07-31T12:59:09.147Z,82.89
2022-07-31T13:01:36.687Z,82.55
2022-07-31T13:04:04.727Z,82.78
2022-07-31T13:06:34.120Z,83.37
2022-07-31T13:09:00.556Z,83.26
2022-07-31T13:11:28.922Z,81.96
2022-07-31T13:13:57.405Z,82.29
2022-07-31T13:16:23.833Z,81.37
2022-07-31T13:18:50.227Z,81.82
2022-07-31T13:21:16.701Z,81.41
2022-07-31T13:23:43.111Z,81.39
2022-07-31T13:26:09.533Z,81.65
2022-07-31T13:28:35.917Z,80.13
2022-07-31T13:31:02.334Z,79.85
2022-07-31T13:33:28.727Z,80.28
2022-07-31T13:35:55.096Z,80.78
2022-07-31T13:38:21.538Z,81.46
2022-07-31T13:41:20.625Z,81.70
2022-07-31T13:44:00.321Z,80.38
2022-07-31T13:46:28.837Z,80.81
2022-07-31T13:48:56.666Z,81.38
2022-07-31T13:51:24.811Z,81.82
2022-07-31T13:53:55.484Z,80.66
2022-07-31T13:56:38.894Z,80.45
2022-07-31T13:59:08.383Z,81.50
2022-07-31T14:02:02.876Z,80.21
2022-07-31T14:04:23.501Z,80.86
2022-07-31T14:06:50.564Z,81.31
2022-07-31T14:09:18.297Z,80.10
2022-07-31T14:11:44.814Z,80.89
2022-07-31T14:14:12.475Z,80.00
2022-07-31T14:16:39.141Z,80.98
2022-07-31T14:19:05.573Z,81.90
2022-07-31T14:21:32.000Z,82.69
2022-07-31T14:23:58.554Z,83.83
2022-07-31T14:26:25.040Z,83.94
2022-07-31T14:28:51.461Z,84.37
2022-07-31T14:31:17.956Z,85.09
2022-07-31T14:33:44.441Z,85.86
2022-07-31T14:36:10.865Z,86.03
2022-07-31T14:38:37.298Z,86.23
2022-07-31T14:41:03.872Z,86.67
2022-07-31T14:43:30.720Z,86.24
2022-07-31T14:45:57.136Z,86.32
2022-07-31T14:48:23.629Z,86.80
2022-07-31T14:50:50.020Z,87.13
2022-07-31T14:53:16.418Z,87.49
2022-07-31T14:55:42.805Z,87.63
2022-07-31T14:58:09.207Z,87.14
2022-07-31T15:00:35.680Z,86.83
2022-07-31T15:03:02.109Z,86.53
2022-07-31T15:06:49.263Z,86.99
2022-07-31T15:08:20.020Z,87.08
2022-07-31T15:10:46.404Z,87.09
2022-07-31T15:13:13.201Z,86.42
2022-07-31T15:15:39.727Z,86.57
2022-07-31T15:18:06.228Z,86.62
2022-07-31T15:20:35.407Z,86.52
2022-07-31T15:23:02.393Z,86.59
2022-07-31T15:25:29.617Z,87.33
2022-07-31T15:27:56.126Z,87.02
2022-07-31T15:30:28.612Z,86.95
2022-07-31T15:32:58.080Z,87.46
2022-07-31T15:35:26.661Z,87.69
2022-07-31T15:37:53.053Z,88.11
2022-07-31T15:40:19.493Z,88.46
2022-07-31T15:42:47.187Z,87.93
2022-07-31T15:45:17.636Z,88.83
2022-07-31T15:47:45.146Z,88.38
2022-07-31T15:50:14.016Z,88.70
2022-07-31T15:52:41.412Z,88.71
2022-07-31T15:55:09.813Z,89.59
2022-07-31T15:57:36.461Z,90.04
2022-07-31T16:00:04.570Z,89.53
2022-07-31T16:02:31.062Z,89.64
2022-07-31T16:05:11.317Z,89.62
2022-07-31T16:08:29.337Z,90.00
2022-07-31T16:10:25.203Z,89.85
2022-07-31T16:12:51.621Z,90.07
2022-07-31T16:15:18.012Z,90.13
2022-07-31T16:17:45.350Z,89.89
2022-07-31T16:20:26.379Z,89.69
2022-07-31T16:22:56.446Z,89.77
2022-07-31T16:25:24.452Z,89.43
2022-07-31T16:27:51.007Z,89.86
2022-07-31T16:30:17.651Z,89.88
2022-07-31T16:32:44.135Z,89.72
2022-07-31T16:35:11.807Z,89.35
2022-07-31T16:37:51.486Z,89.92
2022-07-31T16:40:24.732Z,89.95
2022-07-31T16:43:01.917Z,89.22
2022-07-31T16:45:29.898Z,89.96
2022-07-31T16:47:57.105Z,89.15
2022-07-31T16:50:24.079Z,89.45
2022-07-31T16:52:54.599Z,88.92
2022-07-31T16:55:21.552Z,88.70
2022-07-31T16:58:10.991Z,89.61
2022-07-31T17:00:38.946Z,89.35
2022-07-31T17:03:05.576Z,89.18
2022-07-31T17:05:32.018Z,89.44
2022-07-31T17:07:58.457Z,89.55
2022-07-31T17:10:25.008Z,89.83
2022-07-31T17:12:53.448Z,89.48
2022-07-31T17:15:20.681Z,89.26
2022-07-31T17:17:47.119Z,88.97
2022-07-31T17:20:13.745Z,89.42
2022-07-31T17:22:41.481Z,89.72
2022-07-31T17:25:09.970Z,90.01
2022-07-31T17:27:36.375Z,90.00
2022-07-31T17:30:03.501Z,90.50
2022-07-31T17:32:32.088Z,90.13
2022-07-31T17:34:58.623Z,90.00
2022-07-31T17:37:25.132Z,89.71
2022-07-31T17:39:56.304Z,90.00
2022-07-31T17:42:25.346Z,89.57
2022-07-31T17:44:55.181Z,89.69
2022-07-31T17:47:25.535Z,89.83
2022-07-31T17:49:53.157Z,89.96
2022-07-31T17:52:20.979Z,89.94
2022-07-31T17:54:47.932Z,89.89
2022-07-31T17:57:15.692Z,90.10
2022-07-31T17:59:42.333Z,89.88
2022-07-31T18:02:09.717Z,90.48
2022-07-31T18:04:37.558Z,90.50
2022-07-31T18:07:06.537Z,90.55
2022-07-31T18:09:33.481Z,90.61
2022-07-31T18:12:00.612Z,90.94
2022-07-31T18:14:27.199Z,91.06
2022-07-31T18:16:54.376Z,91.06
2022-07-31T18:19:23.207Z,90.84
2022-07-31T18:21:50.577Z,90.64
2022-07-31T18:24:17.011Z,90.75
2022-07-31T18:26:43.499Z,90.78
2022-07-31T18:29:09.901Z,90.80
2022-07-31T18:31:36.370Z,90.90
2022-07-31T18:34:06.493Z,90.76
2022-07-31T18:36:33.640Z,90.79
2022-07-31T18:39:00.383Z,90.85
2022-07-31T18:41:27.753Z,90.78
2022-07-31T18:43:54.278Z,90.77
2022-07-31T18:46:20.715Z,91.31
2022-07-31T18:48:50.707Z,91.05
2022-07-31T18:51:22.794Z,90.88
2022-07-31T18:53:49.240Z,91.00
2022-07-31T18:56:15.707Z,91.36
2022-07-31T18:58:42.169Z,91.14
2022-07-31T19:01:08.883Z,91.03
2022-07-31T19:03:35.279Z,91.13
2022-07-31T19:06:01.680Z,91.59
2022-07-31T19:08:28.112Z,91.44
2022-07-31T19:10:54.489Z,91.44
2022-07-31T19:13:22.135Z,91.07
2022-07-31T19:15:50.462Z,91.10
2022-07-31T19:18:17.069Z,91.37
2022-07-31T19:20:59.938Z,91.06
2022-07-31T19:23:32.872Z,91.08
2022-07-31T19:26:03.928Z,91.18
2022-07-31T19:28:34.860Z,91.22
2022-07-31T19:31:01.561Z,91.33
2022-07-31T19:33:28.006Z,91.59
2022-07-31T19:36:00.983Z,91.41
2022-07-31T19:38:29.012Z,91.29
2022-07-31T19:40:55.452Z,91.31
2022-07-31T19:43:22.042Z,91.19
2022-07-31T19:45:58.834Z,91.08
2022-07-31T19:48:36.439Z,91.50
2022-07-31T19:51:03.176Z,91.27
2022-07-31T19:53:30.228Z,91.47
2022-07-31T19:55:56.700Z,91.48
2022-07-31T19:58:23.215Z,91.45
2022-07-31T20:00:49.583Z,91.31
2022-07-31T20:03:16.201Z,91.59
2022-07-31T20:05:42.666Z,91.83
2022-07-31T20:08:10.254Z,91.38
2022-07-31T20:10:36.737Z,91.63
2022-07-31T20:13:03.254Z,91.64
2022-07-31T20:15:51.624Z,91.11
2022-07-31T20:18:23.589Z,91.75
2022-07-31T20:20:56.881Z,91.30
2022-07-31T20:23:23.587Z,91.72
2022-07-31T20:25:49.987Z,91.55
2022-07-31T20:28:16.869Z,91.67
2022-07-31T20:30:43.383Z,91.43
2022-07-31T20:33:11.102Z,91.39
2022-07-31T20:35:47.652Z,91.61
2022-07-31T20:38:15.762Z,91.48
2022-07-31T20:40:43.461Z,91.45
2022-07-31T20:43:19.207Z,91.27
2022-07-31T20:45:47.051Z,91.79
2022-07-31T20:48:14.009Z,91.65
2022-07-31T20:50:41.088Z,91.40
2022-07-31T20:53:07.706Z,91.71
2022-07-31T20:55:34.957Z,91.45
2022-07-31T20:58:01.715Z,91.28
2022-07-31T21:00:29.958Z,91.62
2022-07-31T21:02:56.337Z,91.43
2022-07-31T21:05:27.407Z,91.42
2022-07-31T21:07:53.876Z,91.40
2022-07-31T21:10:20.290Z,91.41
2022-07-31T21:12:46.669Z,91.29
2022-07-31T21:15:28.485Z,91.47
2022-07-31T21:17:59.794Z,91.37
2022-07-31T21:20:49.585Z,91.43
2022-07-31T21:23:14.291Z,91.84
2022-07-31T21:25:44.195Z,91.49
2022-07-31T21:28:11.540Z,91.56
2022-07-31T21:30:38.955Z,91.37
2022-07-31T21:33:06.304Z,91.25
2022-07-31T21:35:37.032Z,91.21
2022-07-31T21:38:04.743Z,91.32
2022-07-31T21:40:33.982Z,91.42
2022-07-31T21:43:00.691Z,91.44
2022-07-31T21:45:41.194Z,91.28
2022-07-31T21:48:15.299Z,91.18
2022-07-31T21:50:43.368Z,91.32
2022-07-31T21:53:10.506Z,91.01
2022-07-31T21:55:38.088Z,91.00
2022-07-31T21:58:05.648Z,91.13
2022-07-31T22:00:32.288Z,90.93
2022-07-31T22:02:58.684Z,90.74
2022-07-31T22:05:43.787Z,90.40
2022-07-31T22:08:12.564Z,90.13
2022-07-31T22:10:38.983Z,90.22
2022-07-31T22:13:05.348Z,90.40
2022-07-31T22:15:51.583Z,90.31
2022-07-31T22:18:18.419Z,90.09
2022-07-31T22:20:45.490Z,90.16
2022-07-31T22:23:12.354Z,90.55
2022-07-31T22:25:40.330Z,90.54
2022-07-31T22:28:07.424Z,90.52
2022-07-31T22:30:34.129Z,90.33
2022-07-31T22:33:00.987Z,90.26
2022-07-31T22:35:28.801Z,90.38
2022-07-31T22:37:55.686Z,90.35
2022-07-31T22:40:23.736Z,90.38
2022-07-31T22:42:56.565Z,90.46
2022-07-31T22:45:24.288Z,90.38
2022-07-31T22:47:50.877Z,90.69
2022-07-31T22:50:17.585Z,90.80
2022-07-31T22:52:44.086Z,90.73
2022-07-31T22:55:11.682Z,90.94
2022-07-31T22:57:40.823Z,91.04
2022-07-31T23:00:09.496Z,90.78
2022-07-31T23:02:36.033Z,90.77
2022-07-31T23:05:02.780Z,90.45
2022-07-31T23:07:29.157Z,90.77
2022-07-31T23:09:55.583Z,90.68
2022-07-31T23:12:28.603Z,90.48
2022-07-31T23:14:56.008Z,90.47
2022-07-31T23:17:23.182Z,90.45
2022-07-31T23:19:53.913Z,90.27
2022-07-31T23:22:30.779Z,90.65
2022-07-31T23:25:01.665Z,90.38
2022-07-31T23:27:28.036Z,90.68
2022-07-31T23:29:54.413Z,90.70
2022-07-31T23:32:20.799Z,90.67
2022-07-31T23:34:47.249Z,90.31
2022-07-31T23:37:13.642Z,90.71
2022-07-31T23:39:40.089Z,90.73
2022-07-31T23:42:25.138Z,90.98
2022-07-31T23:44:51.559Z,90.83
2022-07-31T23:47:18.055Z,90.88
2022-07-31T23:49:44.476Z,90.89
2022-07-31T23:52:11.107Z,90.98
2022-07-31T23:54:38.148Z,91.17
2022-07-31T23:57:04.535Z,90.88
2022-07-31T23:59:30.944Z,90.75
